• Join FlightAware (Why Join?)
  • Login
  • US Flag 
07:41PM EDT


 

Airport Tracker/Info


-or-


 

Live Flight TrackerFlight Track Log ✈ CTL18 ✈ 16-Jul-2013 ✈ KMBS - KYIP

Flight Track Log - Related Links

Times and Time Zones

All times are in EDT time to prevent confusion due to time zone crossing. See the CTL18 flight status page for this flight to view local times or setup timezone preferences in your user account.

Time Position Orientation Groundspeed Altitude Reporting Facility
EDT Latitude Longitude Course Direction KTS MPH feet Rate Location/Type
08:08PM 43.3619 -84.0057 160° South  Level Estimated
08:09PM 43.3366 -83.9838 148° Southeast  Level FlightAware Approximate
08:10PM 43.3080 -83.9718 160° South  Level Estimated
08:11PM 43.2807 -83.9553 156° South  Level FlightAware Approximate
08:12PM 43.2533 -83.9388 156° South  Level FlightAware Approximate
08:13PM 43.2247 -83.9271 163° South  Level Estimated
08:14PM 43.1965 -83.9134 161° South  Level FlightAware Approximate
08:15PM 43.1683 -83.8997 161° South  Level FlightAware Approximate
08:15PM 42.9772 -83.8297 160° South 169 194 5,000  Level Cleveland Center
08:16PM 43.1401 -83.8861 161° South  Level FlightAware Approximate
08:16PM 42.9281 -83.8017 157° South 169 194 5,000  Level Cleveland Center
08:17PM 43.1115 -83.8746 160° South  Level Estimated
08:17PM 42.8872 -83.7711 151° Southeast 172 198 5,000  Level Cleveland Center
08:18PM 43.0835 -83.8603 160° South  Level FlightAware Approximate
08:18PM 42.8417 -83.7575 168° South 170 196 5,000  Level Cleveland Center
08:19PM 43.0555 -83.8461 160° South  Level FlightAware Approximate
08:19PM 42.7903 -83.7350 162° South 169 194 5,100  Level Cleveland Center
08:20PM 43.0275 -83.8318 160° South  Level FlightAware Approximate
08:20PM 42.7425 -83.7214 168° South 168 193 5,100  Level Cleveland Center
08:21PM 42.9995 -83.8176 160° South  Level FlightAware Approximate
08:21PM 42.6994 -83.7022 162° South 170 196 5,000  Level Cleveland Center
08:22PM 42.6497 -83.6858 166° South 170 196 5,000 -120 Level Cleveland Center
08:23PM 42.6086 -83.6694 164° South 168 193 4,800 -540 Descending Cleveland Center
08:24PM 42.5569 -83.6531 167° South 190 219 4,000 -840 Descending Cleveland Center
08:25PM 42.5033 -83.6306 163° South 200 230 3,200 -540 Descending Cleveland Center
08:26PM 42.4556 -83.6142 166° South 179 206 3,000 -120 Descending Cleveland Center
08:27PM 42.4061 -83.5922 162° South 171 197 3,000 -300 Level Cleveland Center
08:28PM 42.3611 -83.5675 158° South 181 208 2,500 -540 Descending Cleveland Center
08:29PM 42.3136 -83.5428 159° South 181 208 2,000 -420 Descending Cleveland Center
08:30PM 42.2706 -83.5183 157° South 150 173 1,700 -300 Descending Cleveland Center
08:32PM 42.2379 -83.5190 160° South  Level FlightAware Approximate
08:39PM 42.2333 -83.5167 160° South  Level FlightAware Approximate
08:40PM 42.2393 -83.5310 160° South  Level Estimated